Leominster, Massachusetts
Current Conditions -  °F | °C
As of 5:52 PM on Friday 28 Nov 2014 (Local Time) from KFIT Reporting Station
Broken Clouds Broken Clouds  
Wind Chill: 23°   Ceiling: 4800
Heat Index: 28°   Visibility: 10mi
Dew Point: 18°   Wind: 5mph
Humidity: 66%   Direction: 290°WNW
Pressure: 30.15"   Gusts: NA
Location:  42.53°N, 71.76°W
Report Text: KFIT 282252Z AUTO 29004KT 10SM BKN048 M02/M08 A3015 RMK AO2 SLP213 T10221078
Loading
Personal Weather Stations






























Interactive Weather Map New forecast layout! Learn more

10-Day Weather Forecast

Advertisements
Track Severe Weather on mobile